Time,TemperatureF,DewpointF,PressureIn,WindDirection,WindDirectionDegrees,WindSpeedMPH,WindSpeedGustMPH,Humidity,HourlyPrecipIn,Conditions,Clouds,dailyrainin,SoftwareType,DateUTC
2013-01-04 00:03:00,7.6,6.5,30.14,SW,236,5.8,11.5,95,0.00,CLR,,0.00,WeatherDisplay:10.37,2013-01-04 06:03:00,
2013-01-04 00:08:00,7.5,6.4,30.14,SW,223,5.3,8.1,95,0.00,CLR,,0.00,WeatherDisplay:10.37,2013-01-04 06:08:00,
2013-01-04 00:13:00,7.5,6.4,30.14,SW,233,4.8,8.1,95,0.00,CLR,,0.00,WeatherDisplay:10.37,2013-01-04 06:13:00,
2013-01-04 00:18:00,7.6,6.5,30.14,SSW,195,4.8,10.4,95,0.00,CLR,,0.00,WeatherDisplay:10.37,2013-01-04 06:18:00,
2013-01-04 00:23:00,7.4,6.3,30.14,South,186,3.6,9.2,95,0.00,CLR,,0.00,WeatherDisplay:10.37,2013-01-04 06:23:00,
2013-01-04 00:28:00,7.3,6.2,30.14,South,182,4.8,11.5,95,0.00,CLR,,0.00,WeatherDisplay:10.37,2013-01-04 06:28:00,
2013-01-04 00:33:00,7.1,6.2,30.14,SW,223,4.2,8.5,96,0.00,CLR,,0.00,WeatherDisplay:10.37,2013-01-04 06:33:00,
2013-01-04 00:38:00,7.1,6.2,30.14,WSW,251,3.6,6.9,96,0.00,CLR,,0.00,WeatherDisplay:10.37,2013-01-04 06:38:00,
2013-01-04 00:43:00,7.4,6.5,30.14,SW,233,3.6,4.6,96,0.00,CLR,,0.00,WeatherDisplay:10.37,2013-01-04 06:43:00,
2013-01-04 00:48:00,7.5,6.6,30.14,SSW,208,4.2,9.2,96,0.00,CLR,,0.00,WeatherDisplay:10.37,2013-01-04 06:48:00,
2013-01-04 00:53:00,7.3,6.4,30.13,WSW,247,6.4,10.4,96,0.00,CLR,,0.00,WeatherDisplay:10.37,2013-01-04 06:53:00,
2013-01-04 00:58:00,7.5,6.6,30.13,SSW,210,4.6,6.3,96,0.00,CLR,,0.00,WeatherDisplay:10.37,2013-01-04 06:58:00,
2013-01-04 01:03:00,7.6,6.9,30.12,ESE,123,4.1,6.9,97,0.00,CLR,,0.00,WeatherDisplay:10.37,2013-01-04 07:03:00,
2013-01-04 01:08:00,7.6,6.7,30.12,SW,234,4.6,6.2,96,0.00,CLR,,0.00,WeatherDisplay:10.37,2013-01-04 07:08:00,
2013-01-04 01:13:00,7.8,7.1,30.12,SSW,205,6.0,9.2,97,0.00,CLR,,0.00,WeatherDisplay:10.37,2013-01-04 07:13:00,
2013-01-04 01:18:00,7.8,7.1,30.12,WSW,247,6.0,10.4,97,0.00,CLR,,0.00,WeatherDisplay:10.37,2013-01-04 07:18:00,
2013-01-04 01:23:00,8.0,7.3,30.11,WSW,240,5.6,10.4,97,0.00,CLR,,0.00,WeatherDisplay:10.37,2013-01-04 07:23:00,
2013-01-04 01:28:00,8.0,7.3,30.11,SSW,193,6.8,10.4,97,0.00,CLR,,0.00,WeatherDisplay:10.37,2013-01-04 07:28:00,
2013-01-04 01:33:00,8.2,7.5,30.11,SW,230,6.0,9.2,97,0.00,CLR,,0.00,WeatherDisplay:10.37,2013-01-04 07:33:00,
2013-01-04 01:38:00,8.2,7.5,30.11,South,189,5.5,8.6,97,0.00,CLR,,0.00,WeatherDisplay:10.37,2013-01-04 07:38:00,
2013-01-04 01:43:00,8.4,8.0,30.11,South,191,5.6,9.2,98,0.00,CLR,,0.00,WeatherDisplay:10.37,2013-01-04 07:43:00,
2013-01-04 01:48:00,8.2,7.8,30.11,WSW,258,6.3,9.2,98,0.00,CLR,,0.00,WeatherDisplay:10.37,2013-01-04 07:48:00,
2013-01-04 01:53:00,8.7,8.3,30.11,South,189,5.8,9.2,98,0.00,CLR,,0.00,WeatherDisplay:10.37,2013-01-04 07:53:00,
2013-01-04 01:58:00,8.7,8.3,30.11,South,185,6.1,10.4,98,0.00,CLR,,0.00,WeatherDisplay:10.37,2013-01-04 07:58:00,
2013-01-04 02:03:00,8.6,8.2,30.11,SSW,208,5.9,9.3,98,0.00,CLR,,0.00,WeatherDisplay:10.37,2013-01-04 08:03:00,
2013-01-04 02:08:00,8.5,8.1,30.11,SSW,196,7.6,9.0,98,0.00,CLR,,0.00,WeatherDisplay:10.37,2013-01-04 08:08:00,
2013-01-04 02:13:00,8.8,8.6,30.11,SSW,199,7.2,13.8,99,0.00,CLR,,0.00,WeatherDisplay:10.37,2013-01-04 08:13:00,
2013-01-04 02:18:00,8.8,8.6,30.11,SW,219,5.0,10.4,99,0.00,CLR,,0.00,WeatherDisplay:10.37,2013-01-04 08:18:00,
2013-01-04 02:23:00,9.1,8.9,30.11,SSW,208,7.5,11.2,99,0.00,CLR,,0.00,WeatherDisplay:10.37,2013-01-04 08:23:00,
2013-01-04 02:28:00,9.1,8.9,30.11,SSW,195,7.6,10.4,99,0.00,CLR,,0.00,WeatherDisplay:10.37,2013-01-04 08:28:00,
2013-01-04 02:33:00,9.1,8.9,30.10,SW,232,6.2,8.0,99,0.00,CLR,,0.00,WeatherDisplay:10.37,2013-01-04 08:33:00,
2013-01-04 02:38:00,9.2,9.0,30.10,SSW,213,4.6,8.1,99,0.00,CLR,,0.00,WeatherDisplay:10.37,2013-01-04 08:38:00,
2013-01-04 02:43:00,9.4,9.2,30.10,West,280,5.2,15.0,99,0.00,CLR,,0.00,WeatherDisplay:10.37,2013-01-04 08:43:00,
2013-01-04 02:48:00,9.5,9.5,30.10,SW,232,7.7,12.7,100,0.00,CLR,,0.00,WeatherDisplay:10.37,2013-01-04 08:48:00,
2013-01-04 02:53:00,9.8,9.8,30.10,SW,232,6.6,10.3,100,0.00,CLR,,0.00,WeatherDisplay:10.37,2013-01-04 08:53:00,
2013-01-04 02:58:00,10.0,10.0,30.10,SW,226,6.5,9.2,100,0.00,CLR,,0.00,WeatherDisplay:10.37,2013-01-04 08:58:00,
2013-01-04 03:03:00,10.2,10.2,30.09,SSW,195,6.2,13.8,100,0.00,CLR,,0.00,WeatherDisplay:10.37,2013-01-04 09:03:00,
2013-01-04 03:08:00,10.0,10.0,30.09,South,184,6.6,9.7,100,0.00,CLR,,0.00,WeatherDisplay:10.37,2013-01-04 09:08:00,
2013-01-04 03:13:00,10.0,10.0,30.09,SSE,158,6.8,11.5,100,0.00,CLR,,0.00,WeatherDisplay:10.37,2013-01-04 09:13:00,
2013-01-04 03:18:00,10.2,10.2,30.09,SSW,208,7.1,10.1,100,0.00,CLR,,0.00,WeatherDisplay:10.37,2013-01-04 09:18:00,
2013-01-04 03:23:00,10.3,10.3,30.09,SE,137,5.6,13.8,100,0.00,CLR,,0.00,WeatherDisplay:10.37,2013-01-04 09:23:00,
2013-01-04 03:28:00,10.0,10.0,30.09,SSW,196,7.1,9.2,100,0.00,CLR,,0.00,WeatherDisplay:10.37,2013-01-04 09:28:00,
2013-01-04 03:33:00,9.9,9.9,30.08,South,189,7.8,10.4,100,0.00,CLR,,0.00,WeatherDisplay:10.37,2013-01-04 09:33:00,
2013-01-04 03:38:00,9.6,9.6,30.08,WSW,256,7.7,10.4,100,0.00,CLR,,0.00,WeatherDisplay:10.37,2013-01-04 09:38:00,
2013-01-04 03:43:00,9.6,9.6,30.08,SW,219,7.2,11.5,100,0.00,CLR,,0.00,WeatherDisplay:10.37,2013-01-04 09:43:00,
2013-01-04 03:48:00,9.5,9.5,30.08,SW,222,5.5,8.1,100,0.00,CLR,,0.00,WeatherDisplay:10.37,2013-01-04 09:48:00,
2013-01-04 03:53:00,9.0,9.0,30.08,SSE,165,6.8,10.4,100,0.00,CLR,,0.00,WeatherDisplay:10.37,2013-01-04 09:53:00,
2013-01-04 03:58:00,9.0,9.0,30.08,SSW,213,5.3,10.4,100,0.00,CLR,,0.00,WeatherDisplay:10.37,2013-01-04 09:58:00,
2013-01-04 04:03:00,8.9,8.9,30.07,SSW,208,3.8,12.3,100,0.00,CLR,,0.00,WeatherDisplay:10.37,2013-01-04 10:03:00,
2013-01-04 04:08:00,8.8,8.8,30.07,SW,227,7.1,11.5,100,0.00,CLR,,0.00,WeatherDisplay:10.37,2013-01-04 10:08:00,
2013-01-04 04:13:00,8.7,8.7,30.07,SSW,202,7.0,10.4,100,0.00,CLR,,0.00,WeatherDisplay:10.37,2013-01-04 10:13:00,
2013-01-04 04:18:00,8.5,8.5,30.07,SW,234,6.3,9.2,100,0.00,CLR,,0.00,WeatherDisplay:10.37,2013-01-04 10:18:00,
2013-01-04 04:23:00,8.6,8.6,30.06,SSW,196,5.1,10.4,100,0.00,CLR,,0.00,WeatherDisplay:10.37,2013-01-04 10:23:00,
2013-01-04 04:28:00,8.6,8.6,30.06,SW,215,3.3,8.1,100,0.00,CLR,,0.00,WeatherDisplay:10.37,2013-01-04 10:28:00,
2013-01-04 04:33:00,8.6,8.6,30.06,SSW,193,5.3,8.1,100,0.00,CLR,,0.00,WeatherDisplay:10.37,2013-01-04 10:33:00,
2013-01-04 04:38:00,8.5,8.5,30.06,South,189,7.4,8.1,100,0.00,CLR,,0.00,WeatherDisplay:10.37,2013-01-04 10:38:00,
2013-01-04 04:43:00,8.5,8.5,30.06,ESE,120,7.4,9.2,100,0.00,CLR,,0.00,WeatherDisplay:10.37,2013-01-04 10:43:00,
2013-01-04 04:48:00,8.6,8.6,30.06,SSW,195,6.6,8.1,100,0.00,CLR,,0.00,WeatherDisplay:10.37,2013-01-04 10:48:00,
2013-01-04 04:53:00,8.7,8.7,30.06,SW,224,7.2,12.7,100,0.00,CLR,,0.00,WeatherDisplay:10.37,2013-01-04 10:53:00,
2013-01-04 04:58:00,8.9,8.9,30.06,SSW,213,5.2,8.1,100,0.00,CLR,,0.00,WeatherDisplay:10.37,2013-01-04 10:58:00,
2013-01-04 05:03:00,8.9,8.9,30.05,SW,220,6.6,10.4,100,0.00,CLR,,0.00,WeatherDisplay:10.37,2013-01-04 11:03:00,
2013-01-04 05:08:00,9.0,9.0,30.05,South,185,6.0,12.7,100,0.00,CLR,,0.00,WeatherDisplay:10.37,2013-01-04 11:08:00,
2013-01-04 05:13:00,9.1,9.1,30.05,SW,222,7.7,11.5,100,0.00,CLR,,0.00,WeatherDisplay:10.37,2013-01-04 11:13:00,
2013-01-04 05:18:00,9.1,9.1,30.05,SW,220,8.9,12.7,100,0.00,CLR,,0.00,WeatherDisplay:10.37,2013-01-04 11:18:00,
2013-01-04 05:23:00,9.1,9.1,30.05,WSW,246,5.6,10.4,100,0.00,CLR,,0.00,WeatherDisplay:10.37,2013-01-04 11:23:00,
2013-01-04 05:28:00,9.2,9.2,30.05,SW,236,7.1,9.3,100,0.00,CLR,,0.00,WeatherDisplay:10.37,2013-01-04 11:28:00,
2013-01-04 05:33:00,9.3,9.3,30.05,WSW,251,8.2,12.7,100,0.00,CLR,,0.00,WeatherDisplay:10.37,2013-01-04 11:33:00,
2013-01-04 05:38:00,9.8,9.8,30.06,SSW,210,7.8,12.7,100,0.00,CLR,,0.00,WeatherDisplay:10.37,2013-01-04 11:38:00,
2013-01-04 05:43:00,10.1,10.1,30.06,SSW,193,7.9,11.5,100,0.00,CLR,,0.00,WeatherDisplay:10.37,2013-01-04 11:43:00,
2013-01-04 05:48:00,10.2,10.2,30.06,SSW,205,8.0,11.6,100,0.00,CLR,,0.00,WeatherDisplay:10.37,2013-01-04 11:48:00,
2013-01-04 05:53:00,10.2,10.2,30.06,SSW,208,7.5,14.5,100,0.00,CLR,,0.00,WeatherDisplay:10.37,2013-01-04 11:53:00,
2013-01-04 05:58:00,10.1,10.1,30.06,SSW,206,7.9,10.4,100,0.00,CLR,,0.00,WeatherDisplay:10.37,2013-01-04 11:58:00,
2013-01-04 06:03:00,10.1,10.1,30.06,SSW,205,6.1,9.2,100,0.00,CLR,,0.00,WeatherDisplay:10.37,2013-01-04 12:03:00,
2013-01-04 06:08:00,10.0,10.0,30.06,SW,216,6.3,12.7,100,0.00,CLR,,0.00,WeatherDisplay:10.37,2013-01-04 12:08:00,
2013-01-04 06:13:00,9.8,9.8,30.05,SSW,198,6.1,13.8,100,0.00,CLR,,0.00,WeatherDisplay:10.37,2013-01-04 12:13:00,
2013-01-04 06:18:00,9.8,9.8,30.05,SW,217,6.7,9.3,100,0.00,CLR,,0.00,WeatherDisplay:10.37,2013-01-04 12:18:00,
2013-01-04 06:23:00,9.8,9.8,30.05,SSW,200,8.5,12.7,100,0.00,CLR,,0.00,WeatherDisplay:10.37,2013-01-04 12:23:00,
2013-01-04 06:28:00,9.7,9.7,30.05,SSW,210,8.4,11.5,100,0.00,CLR,,0.00,WeatherDisplay:10.37,2013-01-04 12:28:00,
2013-01-04 06:33:00,9.9,9.9,30.05,WSW,244,7.7,11.5,100,0.00,CLR,,0.00,WeatherDisplay:10.37,2013-01-04 12:33:00,
2013-01-04 06:38:00,10.2,10.2,30.05,SW,215,6.1,6.9,100,0.00,CLR,,0.00,WeatherDisplay:10.37,2013-01-04 12:38:00,
2013-01-04 06:43:00,10.1,10.1,30.06,SW,232,6.2,13.8,100,0.00,CLR,,0.00,WeatherDisplay:10.37,2013-01-04 12:43:00,
2013-01-04 06:48:00,10.5,10.5,30.06,West,278,6.3,10.4,100,0.00,CLR,,0.00,WeatherDisplay:10.37,2013-01-04 12:48:00,
2013-01-04 06:53:00,10.6,10.6,30.06,SSW,202,5.0,6.9,100,0.00,CLR,,0.00,WeatherDisplay:10.37,2013-01-04 12:53:00,
2013-01-04 06:58:00,10.6,10.6,30.06,SW,216,5.1,8.1,100,0.00,CLR,,0.00,WeatherDisplay:10.37,2013-01-04 12:58:00,
2013-01-04 07:03:00,10.7,10.7,30.07,SW,230,6.8,8.1,100,0.00,CLR,,0.00,WeatherDisplay:10.37,2013-01-04 13:03:00,
2013-01-04 07:08:00,11.0,11.0,30.06,South,179,7.7,11.5,100,0.00,CLR,,0.00,WeatherDisplay:10.37,2013-01-04 13:08:00,
2013-01-04 07:13:00,11.0,11.0,30.07,SSE,151,6.0,9.2,100,0.00,CLR,,0.00,WeatherDisplay:10.37,2013-01-04 13:13:00,
2013-01-04 07:18:00,11.4,11.4,30.07,SSW,193,4.4,12.7,100,0.00,CLR,,0.00,WeatherDisplay:10.37,2013-01-04 13:18:00,
2013-01-04 07:23:00,11.5,11.5,30.07,West,260,5.2,10.4,100,0.00,CLR,,0.00,WeatherDisplay:10.37,2013-01-04 13:23:00,
2013-01-04 07:28:00,11.4,11.4,30.07,WSW,256,5.5,13.8,100,0.00,CLR,,0.00,WeatherDisplay:10.37,2013-01-04 13:28:00,
2013-01-04 07:33:00,11.4,11.4,30.07,SSW,202,8.3,14.1,100,0.00,CLR,,0.00,WeatherDisplay:10.37,2013-01-04 13:33:00,
2013-01-04 07:38:00,11.4,11.4,30.07,SSW,200,4.4,9.2,100,0.00,CLR,,0.00,WeatherDisplay:10.37,2013-01-04 13:38:00,
2013-01-04 07:43:00,11.3,11.3,30.07,SW,224,3.3,5.8,100,0.00,CLR,,0.00,WeatherDisplay:10.37,2013-01-04 13:43:00,
2013-01-04 07:48:00,11.1,11.1,30.07,WSW,241,3.8,9.9,100,0.00,CLR,,0.00,WeatherDisplay:10.37,2013-01-04 13:48:00,
2013-01-04 07:53:00,11.2,11.2,30.06,SW,216,6.1,9.2,100,0.00,CLR,,0.00,WeatherDisplay:10.37,2013-01-04 13:53:00,
2013-01-04 07:58:00,11.4,11.4,30.06,SW,232,4.4,9.3,100,0.00,CLR,,0.00,WeatherDisplay:10.37,2013-01-04 13:58:00,
2013-01-04 08:03:00,11.6,11.6,30.06,SE,145,4.7,10.4,100,0.00,CLR,,0.00,WeatherDisplay:10.37,2013-01-04 14:03:00,
2013-01-04 08:08:00,11.8,11.8,30.06,SSW,205,6.6,11.5,100,0.00,CLR,,0.00,WeatherDisplay:10.37,2013-01-04 14:08:00,
2013-01-04 08:13:00,12.0,12.0,30.06,SSW,212,6.7,8.1,100,0.00,CLR,,0.00,WeatherDisplay:10.37,2013-01-04 14:13:00,
2013-01-04 08:18:00,12.6,12.6,30.06,SSW,199,6.3,9.2,100,0.00,CLR,,0.00,WeatherDisplay:10.37,2013-01-04 14:18:00,
2013-01-04 08:23:00,12.9,12.9,30.05,SSE,167,7.9,11.5,100,0.00,CLR,,0.00,WeatherDisplay:10.37,2013-01-04 14:23:00,
2013-01-04 08:28:00,13.2,13.0,30.05,South,191,8.0,10.6,99,0.00,CLR,,0.00,WeatherDisplay:10.37,2013-01-04 14:28:00,
2013-01-04 08:33:00,13.4,12.9,30.05,SW,232,8.4,17.3,98,0.00,CLR,,0.00,WeatherDisplay:10.37,2013-01-04 14:33:00,
2013-01-04 08:38:00,13.8,13.3,30.05,SW,217,6.7,15.0,98,0.00,CLR,,0.00,WeatherDisplay:10.37,2013-01-04 14:38:00,
2013-01-04 08:43:00,14.1,13.6,30.05,South,191,7.2,9.5,98,0.00,CLR,,0.00,WeatherDisplay:10.37,2013-01-04 14:43:00,
2013-01-04 08:48:00,14.3,13.6,30.05,SW,217,6.1,11.5,97,0.00,CLR,,0.00,WeatherDisplay:10.37,2013-01-04 14:48:00,
2013-01-04 08:53:00,14.5,13.8,30.05,SW,222,7.0,12.8,97,0.00,CLR,,0.00,WeatherDisplay:10.37,2013-01-04 14:53:00,
2013-01-04 08:58:00,14.9,13.7,30.05,SW,232,9.3,11.5,95,0.00,CLR,,0.00,WeatherDisplay:10.37,2013-01-04 14:58:00,
2013-01-04 09:03:00,15.2,14.0,30.06,WSW,240,8.3,9.2,95,0.00,CLR,,0.00,WeatherDisplay:10.37,2013-01-04 15:03:00,
2013-01-04 09:08:00,15.6,14.4,30.06,SSW,213,8.4,13.8,95,0.00,CLR,,0.00,WeatherDisplay:10.37,2013-01-04 15:08:00,
2013-01-04 09:13:00,16.0,14.6,30.05,South,176,7.1,16.1,94,0.00,CLR,,0.00,WeatherDisplay:10.37,2013-01-04 15:13:00,
2013-01-04 09:18:00,16.2,14.8,30.06,SSW,198,5.0,9.2,94,0.00,CLR,,0.00,WeatherDisplay:10.37,2013-01-04 15:18:00,
2013-01-04 09:23:00,16.5,14.8,30.06,South,185,8.6,13.8,93,0.00,CLR,,0.00,WeatherDisplay:10.37,2013-01-04 15:23:00,
2013-01-04 09:28:00,16.9,15.0,30.06,WSW,244,9.8,15.0,92,0.00,CLR,,0.00,WeatherDisplay:10.37,2013-01-04 15:28:00,
2013-01-04 09:33:00,17.0,15.1,30.06,West,260,8.6,11.6,92,0.00,CLR,,0.00,WeatherDisplay:10.37,2013-01-04 15:33:00,
2013-01-04 09:38:00,17.3,15.1,30.06,SW,223,7.5,9.2,91,0.00,CLR,,0.00,WeatherDisplay:10.37,2013-01-04 15:38:00,
2013-01-04 09:43:00,17.4,15.2,30.06,WSW,254,10.2,17.3,91,0.00,CLR,,0.00,WeatherDisplay:10.37,2013-01-04 15:43:00,
2013-01-04 09:48:00,17.6,15.4,30.06,SSW,199,7.5,15.0,91,0.00,CLR,,0.00,WeatherDisplay:10.37,2013-01-04 15:48:00,
2013-01-04 09:53:00,18.2,15.8,30.06,WSW,243,7.7,13.8,90,0.00,CLR,,0.00,WeatherDisplay:10.37,2013-01-04 15:53:00,
2013-01-04 09:58:00,18.7,16.3,30.07,WSW,240,6.0,10.4,90,0.00,CLR,,0.00,WeatherDisplay:10.37,2013-01-04 15:58:00,
2013-01-04 10:03:00,19.1,16.1,30.07,WSW,241,8.4,11.5,88,0.00,CLR,,0.00,WeatherDisplay:10.37,2013-01-04 16:03:00,
2013-01-04 10:08:00,19.1,15.9,30.07,SSW,198,7.6,13.8,87,0.00,CLR,,0.00,WeatherDisplay:10.37,2013-01-04 16:08:00,
2013-01-04 10:13:00,19.4,16.2,30.07,SSW,203,5.8,12.7,87,0.00,CLR,,0.00,WeatherDisplay:10.37,2013-01-04 16:13:00,
2013-01-04 10:18:00,19.6,16.1,30.07,South,188,6.3,11.5,86,0.00,CLR,,0.00,WeatherDisplay:10.37,2013-01-04 16:18:00,
2013-01-04 10:23:00,20.1,16.6,30.07,South,182,7.4,11.5,86,0.00,CLR,,0.00,WeatherDisplay:10.37,2013-01-04 16:23:00,
2013-01-04 10:28:00,20.5,16.7,30.07,SSW,206,6.1,11.5,85,0.00,CLR,,0.00,WeatherDisplay:10.37,2013-01-04 16:28:00,
2013-01-04 10:33:00,20.8,16.7,30.06,South,171,9.3,13.8,84,0.00,CLR,,0.00,WeatherDisplay:10.37,2013-01-04 16:33:00,
2013-01-04 10:38:00,21.4,17.3,30.06,SW,217,7.0,13.8,84,0.00,CLR,,0.00,WeatherDisplay:10.37,2013-01-04 16:38:00,
2013-01-04 10:43:00,21.5,17.1,30.06,WSW,246,8.7,16.1,83,0.00,CLR,,0.00,WeatherDisplay:10.37,2013-01-04 16:43:00,
2013-01-04 10:48:00,22.1,17.2,30.06,SW,219,11.2,12.7,81,0.00,CLR,,0.00,WeatherDisplay:10.37,2013-01-04 16:48:00,
2013-01-04 10:53:00,22.4,17.5,30.06,West,261,8.7,16.1,81,0.00,CLR,,0.00,WeatherDisplay:10.37,2013-01-04 16:53:00,
2013-01-04 10:58:00,22.5,17.5,30.06,WSW,251,7.4,13.8,81,0.00,CLR,,0.00,WeatherDisplay:10.37,2013-01-04 16:58:00,
2013-01-04 11:04:00,22.8,17.6,30.06,West,265,7.7,13.8,80,0.00,CLR,,0.00,WeatherDisplay:10.37,2013-01-04 17:04:00,
2013-01-04 11:09:00,23.1,17.6,30.06,SE,136,9.2,13.8,79,0.00,CLR,,0.00,WeatherDisplay:10.37,2013-01-04 17:09:00,
2013-01-04 11:14:00,23.6,18.0,30.05,West,281,6.1,18.4,79,0.00,CLR,,0.00,WeatherDisplay:10.37,2013-01-04 17:14:00,
2013-01-04 11:19:00,23.8,17.9,30.06,SW,216,8.2,12.7,78,0.00,CLR,,0.00,WeatherDisplay:10.37,2013-01-04 17:19:00,
2013-01-04 11:24:00,23.3,17.2,30.06,West,260,9.6,16.1,77,0.00,CLR,,0.00,WeatherDisplay:10.37,2013-01-04 17:24:00,
2013-01-04 11:29:00,23.7,17.5,30.05,WSW,237,9.7,17.3,77,0.00,CLR,,0.00,WeatherDisplay:10.37,2013-01-04 17:29:00,
2013-01-04 11:34:00,23.8,17.6,30.05,SW,220,7.7,13.8,77,0.00,CLR,,0.00,WeatherDisplay:10.37,2013-01-04 17:34:00,
2013-01-04 11:39:00,24.4,17.9,30.05,WSW,241,8.9,12.7,76,0.00,CLR,,0.00,WeatherDisplay:10.37,2013-01-04 17:39:00,
2013-01-04 11:44:00,24.4,17.9,30.05,SW,215,6.1,17.3,76,0.00,CLR,,0.00,WeatherDisplay:10.37,2013-01-04 17:44:00,
2013-01-04 11:49:00,24.7,18.2,30.05,SSW,192,4.2,9.2,76,0.00,CLR,,0.00,WeatherDisplay:10.37,2013-01-04 17:49:00,
2013-01-04 11:54:00,24.5,17.7,30.05,WSW,244,6.1,13.8,75,0.00,CLR,,0.00,WeatherDisplay:10.37,2013-01-04 17:54:00,
2013-01-04 11:59:00,25.0,18.5,30.05,WSW,247,5.6,12.7,76,0.00,CLR,,0.00,WeatherDisplay:10.37,2013-01-04 17:59:00,
2013-01-04 12:04:00,25.2,18.4,30.05,SW,219,5.7,13.8,75,0.00,CLR,,0.00,WeatherDisplay:10.37,2013-01-04 18:04:00,
2013-01-04 12:09:00,25.0,17.9,30.04,WSW,247,9.4,13.8,74,0.00,CLR,,0.00,WeatherDisplay:10.37,2013-01-04 18:09:00,
2013-01-04 12:14:00,25.2,18.1,30.04,WSW,246,8.8,17.3,74,0.00,CLR,,0.00,WeatherDisplay:10.37,2013-01-04 18:14:00,
2013-01-04 12:19:00,25.4,18.3,30.04,North,10,7.6,13.8,74,0.00,CLR,,0.00,WeatherDisplay:10.37,2013-01-04 18:19:00,
2013-01-04 12:24:00,25.9,18.7,30.04,South,171,9.5,12.0,74,0.00,CLR,,0.00,WeatherDisplay:10.37,2013-01-04 18:24:00,
2013-01-04 12:29:00,26.1,18.9,30.03,SSE,162,9.2,15.0,74,0.00,CLR,,0.00,WeatherDisplay:10.37,2013-01-04 18:29:00,
2013-01-04 12:34:00,26.0,18.2,30.03,West,260,7.4,11.5,72,0.00,CLR,,0.00,WeatherDisplay:10.37,2013-01-04 18:34:00,
2013-01-04 12:39:00,25.8,18.3,30.03,WSW,251,10.0,13.8,73,0.00,CLR,,0.00,WeatherDisplay:10.37,2013-01-04 18:39:00,
2013-01-04 12:44:00,25.8,18.7,30.03,WSW,237,8.5,13.8,74,0.00,CLR,,0.00,WeatherDisplay:10.37,2013-01-04 18:44:00,
2013-01-04 12:49:00,26.0,18.8,30.03,South,178,9.3,18.4,74,0.00,CLR,,0.00,WeatherDisplay:10.37,2013-01-04 18:49:00,
2013-01-04 12:54:00,26.2,18.7,30.03,SW,224,8.0,12.7,73,0.00,CLR,,0.00,WeatherDisplay:10.37,2013-01-04 18:54:00,
2013-01-04 12:59:00,26.3,18.8,30.03,WSW,257,9.3,15.0,73,0.00,CLR,,0.00,WeatherDisplay:10.37,2013-01-04 18:59:00,
2013-01-04 13:04:00,26.6,19.1,30.03,SW,224,7.1,12.7,73,0.00,CLR,,0.00,WeatherDisplay:10.37,2013-01-04 19:04:00,
2013-01-04 13:09:00,26.7,18.9,30.03,WSW,247,7.3,17.3,72,0.00,CLR,,0.00,WeatherDisplay:10.37,2013-01-04 19:09:00,
2013-01-04 13:14:00,26.6,19.1,30.03,SSW,203,7.1,11.3,73,0.00,CLR,,0.00,WeatherDisplay:10.37,2013-01-04 19:14:00,
2013-01-04 13:19:00,26.7,19.2,30.03,SSW,212,6.0,13.8,73,0.00,CLR,,0.00,WeatherDisplay:10.37,2013-01-04 19:19:00,
2013-01-04 13:24:00,26.9,19.4,30.03,South,176,7.9,15.1,73,0.00,CLR,,0.00,WeatherDisplay:10.37,2013-01-04 19:24:00,
2013-01-04 13:29:00,26.8,19.0,30.03,WSW,240,9.2,15.0,72,0.00,CLR,,0.00,WeatherDisplay:10.37,2013-01-04 19:29:00,
2013-01-04 13:34:00,26.9,19.1,30.03,SSW,212,6.5,11.5,72,0.00,CLR,,0.00,WeatherDisplay:10.37,2013-01-04 19:34:00,
2013-01-04 13:39:00,27.1,19.3,30.03,West,271,6.9,11.5,72,0.00,CLR,,0.00,WeatherDisplay:10.37,2013-01-04 19:39:00,
2013-01-04 13:44:00,27.5,19.7,30.03,SW,215,6.8,9.2,72,0.00,CLR,,0.00,WeatherDisplay:10.37,2013-01-04 19:44:00,
2013-01-04 13:49:00,27.9,20.0,30.03,SW,227,5.1,9.2,72,0.00,CLR,,0.00,WeatherDisplay:10.37,2013-01-04 19:49:00,
2013-01-04 13:54:00,27.9,19.7,30.03,WSW,247,6.9,10.4,71,0.00,CLR,,0.00,WeatherDisplay:10.37,2013-01-04 19:54:00,
2013-01-04 13:59:00,28.2,20.0,30.03,SSW,198,3.6,9.2,71,0.00,CLR,,0.00,WeatherDisplay:10.37,2013-01-04 19:59:00,
2013-01-04 14:04:00,28.1,19.6,30.03,SSW,209,7.0,9.2,70,0.00,CLR,,0.00,WeatherDisplay:10.37,2013-01-04 20:04:00,
2013-01-04 14:09:00,28.2,19.7,30.04,SSW,196,3.9,11.5,70,0.00,CLR,,0.00,WeatherDisplay:10.37,2013-01-04 20:09:00,
2013-01-04 14:14:00,28.2,19.7,30.04,WSW,254,4.8,8.1,70,0.00,CLR,,0.00,WeatherDisplay:10.37,2013-01-04 20:14:00,
2013-01-04 14:19:00,28.3,19.8,30.04,SW,229,6.8,11.5,70,0.00,CLR,,0.00,WeatherDisplay:10.37,2013-01-04 20:19:00,
2013-01-04 14:24:00,28.3,19.8,30.04,SW,234,5.0,9.2,70,0.00,CLR,,0.00,WeatherDisplay:10.37,2013-01-04 20:24:00,
2013-01-04 14:29:00,28.4,20.2,30.05,West,263,6.1,10.4,71,0.00,CLR,,0.00,WeatherDisplay:10.37,2013-01-04 20:29:00,
2013-01-04 14:34:00,28.2,20.0,30.05,SW,236,4.8,10.4,71,0.00,CLR,,0.00,WeatherDisplay:10.37,2013-01-04 20:34:00,
2013-01-04 14:39:00,28.2,19.7,30.05,SSW,205,6.6,9.2,70,0.00,CLR,,0.00,WeatherDisplay:10.37,2013-01-04 20:39:00,
2013-01-04 14:44:00,28.3,19.8,30.05,WSW,237,6.6,10.4,70,0.00,CLR,,0.00,WeatherDisplay:10.37,2013-01-04 20:44:00,
2013-01-04 14:49:00,28.5,20.0,30.05,WSW,240,6.0,8.1,70,0.00,CLR,,0.00,WeatherDisplay:10.37,2013-01-04 20:49:00,
2013-01-04 14:54:00,28.3,19.8,30.05,WNW,284,5.8,10.4,70,0.00,CLR,,0.00,WeatherDisplay:10.37,2013-01-04 20:54:00,
2013-01-04 14:59:00,28.8,20.2,30.06,West,263,4.9,9.6,70,0.00,CLR,,0.00,WeatherDisplay:10.37,2013-01-04 20:59:00,
2013-01-04 15:04:00,28.4,19.5,30.06,SSW,209,7.6,10.4,69,0.00,CLR,,0.00,WeatherDisplay:10.37,2013-01-04 21:04:00,
2013-01-04 15:09:00,28.7,20.1,30.06,SSW,200,5.2,9.6,70,0.00,CLR,,0.00,WeatherDisplay:10.37,2013-01-04 21:09:00,
2013-01-04 15:14:00,28.6,20.1,30.06,WSW,248,6.7,12.7,70,0.00,CLR,,0.00,WeatherDisplay:10.37,2013-01-04 21:14:00,
2013-01-04 15:19:00,28.7,20.1,30.06,SSW,205,4.3,9.4,70,0.00,CLR,,0.00,WeatherDisplay:10.37,2013-01-04 21:19:00,
2013-01-04 15:24:00,28.2,19.7,30.06,NNE,13,4.8,13.8,70,0.00,CLR,,0.00,WeatherDisplay:10.37,2013-01-04 21:24:00,
2013-01-04 15:29:00,28.4,19.9,30.07,WSW,244,5.2,8.1,70,0.00,CLR,,0.00,WeatherDisplay:10.37,2013-01-04 21:29:00,
2013-01-04 15:34:00,28.1,19.6,30.06,SW,234,8.9,15.0,70,0.00,CLR,,0.00,WeatherDisplay:10.37,2013-01-04 21:34:00,
2013-01-04 15:39:00,28.1,19.9,30.07,SW,223,5.4,10.4,71,0.00,CLR,,0.00,WeatherDisplay:10.37,2013-01-04 21:39:00,
2013-01-04 15:44:00,28.1,19.6,30.07,SW,230,4.9,9.2,70,0.00,CLR,,0.00,WeatherDisplay:10.37,2013-01-04 21:44:00,
2013-01-04 15:49:00,28.2,20.0,30.07,SSW,196,4.1,8.1,71,0.00,CLR,,0.00,WeatherDisplay:10.37,2013-01-04 21:49:00,
2013-01-04 15:54:00,27.8,19.6,30.07,SSW,192,4.9,9.2,71,0.00,CLR,,0.00,WeatherDisplay:10.37,2013-01-04 21:54:00,
2013-01-04 15:59:00,27.7,19.5,30.08,WSW,248,3.3,8.3,71,0.00,CLR,,0.00,WeatherDisplay:10.37,2013-01-04 21:59:00,
2013-01-04 16:04:00,27.5,19.7,30.08,WSW,258,3.6,8.1,72,0.00,CLR,,0.00,WeatherDisplay:10.37,2013-01-04 22:04:00,
2013-01-04 16:09:00,27.3,19.5,30.08,SW,217,3.9,8.1,72,0.00,CLR,,0.00,WeatherDisplay:10.37,2013-01-04 22:09:00,
2013-01-04 16:14:00,26.7,19.5,30.08,SSW,199,5.4,8.1,74,0.00,CLR,,0.00,WeatherDisplay:10.37,2013-01-04 22:14:00,
2013-01-04 16:19:00,26.5,19.3,30.08,WSW,243,4.9,10.4,74,0.00,CLR,,0.00,WeatherDisplay:10.37,2013-01-04 22:19:00,
2013-01-04 16:24:00,26.5,19.6,30.08,SSW,203,2.4,4.6,75,0.00,CLR,,0.00,WeatherDisplay:10.37,2013-01-04 22:24:00,
2013-01-04 16:29:00,26.2,19.4,30.08,SW,222,6.8,10.4,75,0.00,CLR,,0.00,WeatherDisplay:10.37,2013-01-04 22:29:00,
2013-01-04 16:34:00,26.3,19.8,30.08,West,270,3.4,4.6,76,0.00,CLR,,0.00,WeatherDisplay:10.37,2013-01-04 22:34:00,
2013-01-04 16:39:00,26.0,19.5,30.08,SSW,195,5.4,9.2,76,0.00,CLR,,0.00,WeatherDisplay:10.37,2013-01-04 22:39:00,
2013-01-04 16:44:00,25.7,19.5,30.09,SW,216,5.1,6.9,77,0.00,CLR,,0.00,WeatherDisplay:10.37,2013-01-04 22:44:00,
2013-01-04 16:49:00,25.7,19.5,30.09,SW,227,5.7,9.2,77,0.00,CLR,,0.00,WeatherDisplay:10.37,2013-01-04 22:49:00,
2013-01-04 16:54:00,25.7,19.5,30.09,SSW,192,5.3,8.1,77,0.00,CLR,,0.00,WeatherDisplay:10.37,2013-01-04 22:54:00,
2013-01-04 16:59:00,25.5,19.3,30.10,SW,236,5.7,9.2,77,0.00,CLR,,0.00,WeatherDisplay:10.37,2013-01-04 22:59:00,
2013-01-04 17:04:00,25.3,19.4,30.09,SW,215,6.3,8.1,78,0.00,CLR,,0.00,WeatherDisplay:10.37,2013-01-04 23:04:00,
2013-01-04 17:09:00,25.3,19.4,30.09,South,188,4.5,6.1,78,0.00,CLR,,0.00,WeatherDisplay:10.37,2013-01-04 23:09:00,
2013-01-04 17:14:00,25.3,19.4,30.09,SW,227,3.5,5.8,78,0.00,CLR,,0.00,WeatherDisplay:10.37,2013-01-04 23:14:00,
2013-01-04 17:19:00,25.1,19.2,30.10,SW,234,3.7,7.0,78,0.00,CLR,,0.00,WeatherDisplay:10.37,2013-01-04 23:19:00,
2013-01-04 17:24:00,25.1,19.5,30.10,WSW,257,4.1,9.2,79,0.00,CLR,,0.00,WeatherDisplay:10.37,2013-01-04 23:24:00,
2013-01-04 17:29:00,24.8,19.2,30.10,South,174,6.3,9.2,79,0.00,CLR,,0.00,WeatherDisplay:10.37,2013-01-04 23:29:00,
2013-01-04 17:34:00,24.8,19.5,30.10,South,191,6.3,9.2,80,0.00,CLR,,0.00,WeatherDisplay:10.37,2013-01-04 23:34:00,
2013-01-04 17:39:00,24.7,19.4,30.11,SSW,206,5.5,8.1,80,0.00,CLR,,0.00,WeatherDisplay:10.37,2013-01-04 23:39:00,
2013-01-04 17:44:00,24.8,19.5,30.11,WSW,244,3.0,6.9,80,0.00,CLR,,0.00,WeatherDisplay:10.37,2013-01-04 23:44:00,
2013-01-04 17:49:00,24.8,19.5,30.11,WSW,246,3.4,7.6,80,0.00,CLR,,0.00,WeatherDisplay:10.37,2013-01-04 23:49:00,
2013-01-04 17:54:00,24.6,19.3,30.11,South,176,3.4,6.9,80,0.00,CLR,,0.00,WeatherDisplay:10.37,2013-01-04 23:54:00,
2013-01-04 17:59:00,24.4,19.1,30.11,South,171,4.7,8.1,80,0.00,CLR,,0.00,WeatherDisplay:10.37,2013-01-04 23:59:00,
2013-01-04 18:04:00,24.5,19.5,30.12,WSW,257,2.2,3.5,81,0.00,CLR,,0.00,WeatherDisplay:10.37,2013-01-05 00:04:00,
2013-01-04 18:09:00,24.5,19.5,30.11,SW,219,4.4,6.9,81,0.00,CLR,,0.00,WeatherDisplay:10.37,2013-01-05 00:09:00,
2013-01-04 18:14:00,24.3,19.3,30.11,WSW,256,3.7,4.6,81,0.00,CLR,,0.00,WeatherDisplay:10.37,2013-01-05 00:14:00,
2013-01-04 18:19:00,24.2,19.2,30.11,SSW,206,4.0,5.8,81,0.00,CLR,,0.00,WeatherDisplay:10.37,2013-01-05 00:19:00,
2013-01-04 18:24:00,24.0,19.3,30.11,SW,230,4.4,6.9,82,0.00,CLR,,0.00,WeatherDisplay:10.37,2013-01-05 00:24:00,
2013-01-04 18:29:00,23.9,19.2,30.11,South,171,1.4,4.6,82,0.00,CLR,,0.00,WeatherDisplay:10.37,2013-01-05 00:29:00,
2013-01-04 18:34:00,24.0,19.3,30.11,WSW,237,3.2,8.1,82,0.00,CLR,,0.00,WeatherDisplay:10.37,2013-01-05 00:34:00,
2013-01-04 18:39:00,23.8,19.1,30.11,SSW,206,4.5,8.2,82,0.00,CLR,,0.00,WeatherDisplay:10.37,2013-01-05 00:39:00,
2013-01-04 18:44:00,23.8,19.4,30.11,SSW,199,3.9,6.9,83,0.00,CLR,,0.00,WeatherDisplay:10.37,2013-01-05 00:44:00,
2013-01-04 18:49:00,23.9,19.5,30.12,SW,229,2.8,6.9,83,0.00,CLR,,0.00,WeatherDisplay:10.37,2013-01-05 00:49:00,
2013-01-04 18:54:00,23.7,19.3,30.12,South,172,2.9,6.9,83,0.00,CLR,,0.00,WeatherDisplay:10.37,2013-01-05 00:54:00,
2013-01-04 18:59:00,23.5,19.4,30.12,SW,233,5.9,8.1,84,0.00,CLR,,0.00,WeatherDisplay:10.37,2013-01-05 00:59:00,
2013-01-04 19:04:00,23.6,19.2,30.12,SE,140,0.0,0.0,83,0.00,CLR,,0.00,WeatherDisplay:10.37,2013-01-05 01:04:00,
2013-01-04 19:09:00,23.5,19.4,30.12,South,191,3.2,5.8,84,0.00,CLR,,0.00,WeatherDisplay:10.37,2013-01-05 01:09:00,
2013-01-04 19:14:00,23.4,19.3,30.12,SW,220,1.8,5.8,84,0.00,CLR,,0.00,WeatherDisplay:10.37,2013-01-05 01:14:00,
2013-01-04 19:19:00,23.2,19.1,30.12,SSE,152,0.6,4.6,84,0.00,CLR,,0.00,WeatherDisplay:10.37,2013-01-05 01:19:00,
2013-01-04 19:24:00,23.1,19.0,30.13,SSE,167,0.0,0.0,84,0.00,CLR,,0.00,WeatherDisplay:10.37,2013-01-05 01:24:00,
2013-01-04 19:29:00,22.8,18.7,30.12,SSE,161,0.7,2.3,84,0.00,CLR,,0.00,WeatherDisplay:10.37,2013-01-05 01:29:00,
2013-01-04 19:34:00,22.4,18.6,30.13,South,184,1.6,3.5,85,0.00,CLR,,0.00,WeatherDisplay:10.37,2013-01-05 01:34:00,
2013-01-04 19:39:00,22.3,19.0,30.13,South,175,3.7,5.8,87,0.00,CLR,,0.00,WeatherDisplay:10.37,2013-01-05 01:39:00,
2013-01-04 19:44:00,22.2,18.9,30.13,South,188,0.6,2.3,87,0.00,CLR,,0.00,WeatherDisplay:10.37,2013-01-05 01:44:00,
2013-01-04 19:49:00,22.1,18.8,30.13,SE,141,0.0,0.0,87,0.00,CLR,,0.00,WeatherDisplay:10.37,2013-01-05 01:49:00,
2013-01-04 19:54:00,21.9,18.9,30.13,SW,227,2.0,4.6,88,0.00,CLR,,0.00,WeatherDisplay:10.37,2013-01-05 01:54:00,
2013-01-04 19:59:00,21.8,19.3,30.13,SSW,200,5.4,8.1,90,0.00,CLR,,0.00,WeatherDisplay:10.37,2013-01-05 01:59:00,
2013-01-04 20:04:00,21.9,19.7,30.12,SW,224,6.4,9.4,91,0.00,CLR,,0.00,WeatherDisplay:10.37,2013-01-05 02:04:00,
2013-01-04 20:09:00,21.9,19.7,30.12,SSW,210,4.0,5.8,91,0.00,CLR,,0.00,WeatherDisplay:10.37,2013-01-05 02:09:00,
2013-01-04 20:14:00,21.8,19.6,30.12,SSW,200,5.0,6.9,91,0.00,CLR,,0.00,WeatherDisplay:10.37,2013-01-05 02:14:00,
2013-01-04 20:19:00,21.9,19.7,30.13,SSW,202,4.4,5.8,91,0.00,CLR,,0.00,WeatherDisplay:10.37,2013-01-05 02:19:00,
2013-01-04 20:24:00,21.7,19.5,30.13,WSW,246,3.6,5.8,91,0.00,CLR,,0.00,WeatherDisplay:10.37,2013-01-05 02:24:00,
2013-01-04 20:29:00,21.4,19.4,30.13,SSW,209,3.5,6.9,92,0.00,CLR,,0.00,WeatherDisplay:10.37,2013-01-05 02:29:00,
2013-01-04 20:34:00,21.1,19.1,30.13,SW,220,4.4,6.9,92,0.00,CLR,,0.00,WeatherDisplay:10.37,2013-01-05 02:34:00,
2013-01-04 20:39:00,21.2,19.5,30.13,WSW,243,3.3,5.8,93,0.00,CLR,,0.00,WeatherDisplay:10.37,2013-01-05 02:39:00,
2013-01-04 20:44:00,21.2,19.5,30.12,SW,229,3.5,5.8,93,0.00,CLR,,0.00,WeatherDisplay:10.37,2013-01-05 02:44:00,
2013-01-04 20:49:00,21.2,19.7,30.12,SSW,198,4.3,6.9,94,0.00,CLR,,0.00,WeatherDisplay:10.37,2013-01-05 02:49:00,
2013-01-04 20:54:00,21.1,19.6,30.12,SW,224,4.9,6.9,94,0.00,CLR,,0.00,WeatherDisplay:10.37,2013-01-05 02:54:00,
2013-01-04 20:59:00,21.1,19.6,30.13,SSW,196,5.6,7.0,94,0.00,CLR,,0.00,WeatherDisplay:10.37,2013-01-05 02:59:00,
2013-01-04 21:04:00,21.4,19.9,30.13,WSW,239,4.9,8.1,94,0.00,CLR,,0.00,WeatherDisplay:10.37,2013-01-05 03:04:00,
2013-01-04 21:09:00,21.1,19.6,30.13,SSW,202,1.2,4.1,94,0.00,CLR,,0.00,WeatherDisplay:10.37,2013-01-05 03:09:00,
2013-01-04 21:14:00,21.1,19.6,30.12,SW,223,4.2,5.4,94,0.00,CLR,,0.00,WeatherDisplay:10.37,2013-01-05 03:14:00,
2013-01-04 21:19:00,20.9,19.4,30.12,SW,230,5.1,6.3,94,0.00,CLR,,0.00,WeatherDisplay:10.37,2013-01-05 03:19:00,
2013-01-04 21:24:00,20.7,19.5,30.13,SW,215,4.1,5.8,95,0.00,CLR,,0.00,WeatherDisplay:10.37,2013-01-05 03:24:00,
2013-01-04 21:29:00,20.8,19.6,30.12,WSW,240,5.4,6.9,95,0.00,CLR,,0.00,WeatherDisplay:10.37,2013-01-05 03:29:00,
2013-01-04 21:34:00,20.8,19.6,30.13,SW,223,4.3,6.9,95,0.00,CLR,,0.00,WeatherDisplay:10.37,2013-01-05 03:34:00,
2013-01-04 21:39:00,20.6,19.4,30.13,West,271,3.7,8.1,95,0.00,CLR,,0.00,WeatherDisplay:10.37,2013-01-05 03:39:00,
2013-01-04 21:44:00,20.4,19.2,30.13,SW,216,2.8,5.8,95,0.00,CLR,,0.00,WeatherDisplay:10.37,2013-01-05 03:44:00,
2013-01-04 21:49:00,20.1,18.9,30.13,SW,223,2.4,3.5,95,0.00,CLR,,0.00,WeatherDisplay:10.37,2013-01-05 03:49:00,
2013-01-04 21:54:00,20.1,18.9,30.13,WSW,239,3.3,4.6,95,0.00,CLR,,0.00,WeatherDisplay:10.37,2013-01-05 03:54:00,
2013-01-04 21:59:00,20.0,19.0,30.13,SSW,203,2.0,6.9,96,0.00,CLR,,0.00,WeatherDisplay:10.37,2013-01-05 03:59:00,
2013-01-04 22:04:00,20.4,19.7,30.13,SW,222,3.7,5.8,97,0.00,CLR,,0.00,WeatherDisplay:10.37,2013-01-05 04:04:00,
2013-01-04 22:09:00,20.5,19.5,30.14,SW,220,3.4,4.6,96,0.00,CLR,,0.00,WeatherDisplay:10.37,2013-01-05 04:09:00,
2013-01-04 22:14:00,20.5,19.5,30.14,SW,217,4.8,5.8,96,0.00,CLR,,0.00,WeatherDisplay:10.37,2013-01-05 04:14:00,
2013-01-04 22:19:00,20.6,19.9,30.14,WSW,239,5.1,6.9,97,0.00,CLR,,0.00,WeatherDisplay:10.37,2013-01-05 04:19:00,
2013-01-04 22:24:00,20.6,19.9,30.14,SW,232,5.9,8.0,97,0.00,CLR,,0.00,WeatherDisplay:10.37,2013-01-05 04:24:00,
2013-01-04 22:29:00,20.7,19.7,30.14,WSW,240,4.0,6.9,96,0.00,CLR,,0.00,WeatherDisplay:10.37,2013-01-05 04:29:00,
2013-01-04 22:34:00,20.7,19.7,30.14,SW,216,4.5,6.9,96,0.00,CLR,,0.00,WeatherDisplay:10.37,2013-01-05 04:34:00,
2013-01-04 22:39:00,20.8,19.8,30.14,SW,227,3.5,5.8,96,0.00,CLR,,0.00,WeatherDisplay:10.37,2013-01-05 04:39:00,
2013-01-04 22:44:00,20.9,19.9,30.14,SSW,205,5.2,9.2,96,0.00,CLR,,0.00,WeatherDisplay:10.37,2013-01-05 04:44:00,
2013-01-04 22:49:00,21.1,20.1,30.14,WSW,247,4.8,6.9,96,0.00,CLR,,0.00,WeatherDisplay:10.37,2013-01-05 04:49:00,
2013-01-04 22:54:00,21.2,20.2,30.14,WSW,241,4.1,5.8,96,0.00,CLR,,0.00,WeatherDisplay:10.37,2013-01-05 04:54:00,
2013-01-04 22:59:00,21.2,20.0,30.14,West,271,4.2,8.1,95,0.00,CLR,,0.00,WeatherDisplay:10.37,2013-01-05 04:59:00,
2013-01-04 23:00:00,21.3,20.1,30.14,West,265,5.7,9.2,95,0.00,CLR,,0.00,WeatherDisplay:10.37,2013-01-05 05:00:00,
2013-01-04 23:05:00,21.1,19.9,30.14,SW,222,3.7,4.6,95,0.00,CLR,,0.00,WeatherDisplay:10.37,2013-01-05 05:05:00,
2013-01-04 23:10:00,20.9,19.7,30.14,WSW,254,3.2,4.6,95,0.00,CLR,,0.00,WeatherDisplay:10.37,2013-01-05 05:10:00,
2013-01-04 23:15:00,20.6,19.4,30.14,WSW,237,2.7,4.6,95,0.00,CLR,,0.00,WeatherDisplay:10.37,2013-01-05 05:15:00,
2013-01-04 23:20:00,20.5,19.5,30.14,SSW,213,3.8,4.6,96,0.00,CLR,,0.00,WeatherDisplay:10.37,2013-01-05 05:20:00,
2013-01-04 23:25:00,20.3,19.1,30.14,SSW,209,3.3,6.9,95,0.00,CLR,,0.00,WeatherDisplay:10.37,2013-01-05 05:25:00,
2013-01-04 23:30:00,20.1,19.1,30.14,WSW,239,1.8,4.6,96,0.00,CLR,,0.00,WeatherDisplay:10.37,2013-01-05 05:30:00,
2013-01-04 23:35:00,20.0,19.0,30.13,WSW,241,1.7,3.5,96,0.00,CLR,,0.00,WeatherDisplay:10.37,2013-01-05 05:35:00,
2013-01-04 23:40:00,19.8,18.8,30.13,WSW,248,0.0,1.1,96,0.00,CLR,,0.00,WeatherDisplay:10.37,2013-01-05 05:40:00,
2013-01-04 23:45:00,19.3,18.3,30.13,WNW,288,0.0,2.3,96,0.00,CLR,,0.00,WeatherDisplay:10.37,2013-01-05 05:45:00,
2013-01-04 23:50:00,19.0,18.0,30.13,WSW,241,1.6,2.3,96,0.00,CLR,,0.00,WeatherDisplay:10.37,2013-01-05 05:50:00,
2013-01-04 23:55:00,18.8,18.1,30.12,SW,227,1.1,3.5,97,0.00,CLR,,0.00,WeatherDisplay:10.37,2013-01-05 05:55:00,